sensor_id;sensor_type;location;lat;lon;timestamp;pressure;altitude;pressure_sealevel;temperature;humidity
22743;BME280;11538;48.884;8.696;2023-06-10T00:00:47;98355.69;;;17.98;76.18
22743;BME280;11538;48.884;8.696;2023-06-10T00:03:14;98352.69;;;17.87;76.78
22743;BME280;11538;48.884;8.696;2023-06-10T00:05:41;98341.47;;;17.76;77.39
22743;BME280;11538;48.884;8.696;2023-06-10T00:08:08;98342.34;;;17.80;77.47
22743;BME280;11538;48.884;8.696;2023-06-10T00:10:37;98343.84;;;17.94;76.67
22743;BME280;11538;48.884;8.696;2023-06-10T00:13:09;98349.53;;;17.85;76.55
22743;BME280;11538;48.884;8.696;2023-06-10T00:15:37;98350.00;;;17.71;77.89
22743;BME280;11538;48.884;8.696;2023-06-10T00:18:05;98340.97;;;17.71;78.39
22743;BME280;11538;48.884;8.696;2023-06-10T00:20:32;98356.19;;;17.68;78.40
22743;BME280;11538;48.884;8.696;2023-06-10T00:23:00;98351.09;;;17.66;78.42
22743;BME280;11538;48.884;8.696;2023-06-10T00:25:28;98341.16;;;17.62;78.26
22743;BME280;11538;48.884;8.696;2023-06-10T00:27:55;98350.56;;;17.61;78.87
22743;BME280;11538;48.884;8.696;2023-06-10T00:30:22;98354.28;;;17.52;78.90
22743;BME280;11538;48.884;8.696;2023-06-10T00:32:49;98347.94;;;17.48;79.48
22743;BME280;11538;48.884;8.696;2023-06-10T00:35:16;98348.47;;;17.38;80.35
22743;BME280;11538;48.884;8.696;2023-06-10T00:37:43;98351.16;;;17.34;80.75
22743;BME280;11538;48.884;8.696;2023-06-10T00:40:10;98354.66;;;17.35;80.57
22743;BME280;11538;48.884;8.696;2023-06-10T00:42:40;98358.66;;;17.37;80.54
22743;BME280;11538;48.884;8.696;2023-06-10T00:45:07;98354.06;;;17.42;80.47
22743;BME280;11538;48.884;8.696;2023-06-10T00:47:35;98353.88;;;17.34;81.02
22743;BME280;11538;48.884;8.696;2023-06-10T00:50:03;98350.53;;;17.25;82.09
22743;BME280;11538;48.884;8.696;2023-06-10T00:52:31;98361.06;;;17.23;82.34
22743;BME280;11538;48.884;8.696;2023-06-10T00:54:59;98354.06;;;17.09;83.51
22743;BME280;11538;48.884;8.696;2023-06-10T00:57:26;98364.13;;;17.05;83.67
22743;BME280;11538;48.884;8.696;2023-06-10T00:59:54;98351.31;;;16.93;84.33
22743;BME280;11538;48.884;8.696;2023-06-10T01:02:21;98364.06;;;17.02;84.12
22743;BME280;11538;48.884;8.696;2023-06-10T01:04:48;98361.44;;;16.93;84.09
22743;BME280;11538;48.884;8.696;2023-06-10T01:07:56;98363.75;;;16.91;84.61
22743;BME280;11538;48.884;8.696;2023-06-10T01:10:36;98358.13;;;17.00;83.96
22743;BME280;11538;48.884;8.696;2023-06-10T01:13:10;98358.28;;;16.91;84.39
22743;BME280;11538;48.884;8.696;2023-06-10T01:15:39;98365.97;;;16.85;84.40
22743;BME280;11538;48.884;8.696;2023-06-10T01:18:08;98355.00;;;16.85;84.21
22743;BME280;11538;48.884;8.696;2023-06-10T01:20:37;98355.34;;;16.84;84.04
22743;BME280;11538;48.884;8.696;2023-06-10T01:23:07;98357.19;;;16.79;84.10
22743;BME280;11538;48.884;8.696;2023-06-10T01:25:41;98348.66;;;16.81;83.89
22743;BME280;11538;48.884;8.696;2023-06-10T01:28:55;98354.38;;;16.92;83.17
22743;BME280;11538;48.884;8.696;2023-06-10T01:31:55;98357.31;;;16.99;83.04
22743;BME280;11538;48.884;8.696;2023-06-10T01:34:26;98359.88;;;16.92;83.59
22743;BME280;11538;48.884;8.696;2023-06-10T01:36:56;98362.16;;;16.90;83.48
22743;BME280;11538;48.884;8.696;2023-06-10T01:39:25;98358.19;;;16.87;83.74
22743;BME280;11538;48.884;8.696;2023-06-10T01:41:53;98372.16;;;16.82;84.12
22743;BME280;11538;48.884;8.696;2023-06-10T01:44:22;98366.13;;;16.76;84.88
22743;BME280;11538;48.884;8.696;2023-06-10T01:46:49;98359.69;;;16.85;84.13
22743;BME280;11538;48.884;8.696;2023-06-10T01:49:16;98369.38;;;16.66;84.97
22743;BME280;11538;48.884;8.696;2023-06-10T01:51:43;98366.19;;;16.64;85.33
22743;BME280;11538;48.884;8.696;2023-06-10T01:54:10;98380.00;;;16.67;85.14
22743;BME280;11538;48.884;8.696;2023-06-10T01:56:37;98363.38;;;16.60;85.01
22743;BME280;11538;48.884;8.696;2023-06-10T01:59:04;98366.13;;;16.60;85.18
22743;BME280;11538;48.884;8.696;2023-06-10T02:01:31;98368.94;;;16.64;85.05
22743;BME280;11538;48.884;8.696;2023-06-10T02:03:58;98366.91;;;16.61;84.99
22743;BME280;11538;48.884;8.696;2023-06-10T02:06:25;98369.13;;;16.43;86.05
22743;BME280;11538;48.884;8.696;2023-06-10T02:08:52;98376.47;;;16.38;86.40
22743;BME280;11538;48.884;8.696;2023-06-10T02:11:19;98371.34;;;16.37;86.84
22743;BME280;11538;48.884;8.696;2023-06-10T02:13:46;98370.13;;;16.50;85.52
22743;BME280;11538;48.884;8.696;2023-06-10T02:16:13;98370.13;;;16.50;85.78
22743;BME280;11538;48.884;8.696;2023-06-10T02:18:41;98379.56;;;16.37;86.49
22743;BME280;11538;48.884;8.696;2023-06-10T02:21:10;98381.03;;;16.34;86.76
22743;BME280;11538;48.884;8.696;2023-06-10T02:23:37;98372.56;;;16.40;86.41
22743;BME280;11538;48.884;8.696;2023-06-10T02:26:04;98373.97;;;16.33;86.71
22743;BME280;11538;48.884;8.696;2023-06-10T02:28:31;98378.91;;;16.28;86.98
22743;BME280;11538;48.884;8.696;2023-06-10T02:30:58;98380.44;;;16.41;86.46
22743;BME280;11538;48.884;8.696;2023-06-10T02:33:26;98382.53;;;16.32;86.72
22743;BME280;11538;48.884;8.696;2023-06-10T02:35:56;98377.97;;;16.36;86.32
22743;BME280;11538;48.884;8.696;2023-06-10T02:38:23;98386.81;;;16.45;85.79
22743;BME280;11538;48.884;8.696;2023-06-10T02:40:50;98382.03;;;16.42;85.86
22743;BME280;11538;48.884;8.696;2023-06-10T02:43:17;98385.97;;;16.29;86.41
22743;BME280;11538;48.884;8.696;2023-06-10T02:45:44;98386.41;;;16.31;86.49
22743;BME280;11538;48.884;8.696;2023-06-10T02:48:11;98391.34;;;16.25;86.84
22743;BME280;11538;48.884;8.696;2023-06-10T02:50:38;98389.50;;;16.29;86.74
22743;BME280;11538;48.884;8.696;2023-06-10T02:53:06;98397.94;;;16.24;87.25
22743;BME280;11538;48.884;8.696;2023-06-10T02:55:33;98389.41;;;16.26;87.29
22743;BME280;11538;48.884;8.696;2023-06-10T02:58:02;98392.19;;;16.13;88.24
22743;BME280;11538;48.884;8.696;2023-06-10T03:00:29;98395.28;;;15.99;89.10
22743;BME280;11538;48.884;8.696;2023-06-10T03:02:56;98398.81;;;16.00;89.21
22743;BME280;11538;48.884;8.696;2023-06-10T03:05:24;98401.19;;;16.01;89.17
22743;BME280;11538;48.884;8.696;2023-06-10T03:07:51;98400.22;;;15.93;89.91
22743;BME280;11538;48.884;8.696;2023-06-10T03:10:18;98400.09;;;15.90;90.32
22743;BME280;11538;48.884;8.696;2023-06-10T03:12:45;98403.59;;;15.78;90.82
22743;BME280;11538;48.884;8.696;2023-06-10T03:15:12;98406.09;;;15.71;91.42
22743;BME280;11538;48.884;8.696;2023-06-10T03:17:39;98405.19;;;15.79;91.12
22743;BME280;11538;48.884;8.696;2023-06-10T03:20:07;98401.22;;;15.89;90.54
22743;BME280;11538;48.884;8.696;2023-06-10T03:22:37;98408.63;;;15.88;90.77
22743;BME280;11538;48.884;8.696;2023-06-10T03:25:05;98414.09;;;15.76;91.38
22743;BME280;11538;48.884;8.696;2023-06-10T03:27:33;98407.16;;;15.66;92.23
22743;BME280;11538;48.884;8.696;2023-06-10T03:30:02;98408.84;;;15.71;92.29
22743;BME280;11538;48.884;8.696;2023-06-10T03:32:30;98417.50;;;15.85;90.88
22743;BME280;11538;48.884;8.696;2023-06-10T03:34:57;98408.16;;;15.86;90.66
22743;BME280;11538;48.884;8.696;2023-06-10T03:37:25;98412.94;;;15.77;91.48
22743;BME280;11538;48.884;8.696;2023-06-10T03:39:52;98414.91;;;15.64;92.19
22743;BME280;11538;48.884;8.696;2023-06-10T03:42:19;98420.91;;;15.82;91.32
22743;BME280;11538;48.884;8.696;2023-06-10T03:44:46;98418.91;;;15.91;90.41
22743;BME280;11538;48.884;8.696;2023-06-10T03:47:13;98411.38;;;16.01;89.70
22743;BME280;11538;48.884;8.696;2023-06-10T03:49:40;98416.34;;;15.86;90.44
22743;BME280;11538;48.884;8.696;2023-06-10T03:52:07;98412.84;;;15.73;91.85
22743;BME280;11538;48.884;8.696;2023-06-10T03:54:34;98419.22;;;15.65;92.63
22743;BME280;11538;48.884;8.696;2023-06-10T03:57:01;98414.31;;;15.71;92.45
22743;BME280;11538;48.884;8.696;2023-06-10T03:59:29;98417.50;;;15.73;92.39
22743;BME280;11538;48.884;8.696;2023-06-10T04:01:55;98420.69;;;15.75;92.37
22743;BME280;11538;48.884;8.696;2023-06-10T04:04:23;98425.69;;;15.73;92.53
22743;BME280;11538;48.884;8.696;2023-06-10T04:06:50;98415.34;;;15.78;91.93
22743;BME280;11538;48.884;8.696;2023-06-10T04:09:18;98424.91;;;15.85;91.46
22743;BME280;11538;48.884;8.696;2023-06-10T04:11:44;98421.81;;;15.86;91.60
22743;BME280;11538;48.884;8.696;2023-06-10T04:14:11;98412.84;;;15.98;90.88
22743;BME280;11538;48.884;8.696;2023-06-10T04:16:40;98422.75;;;16.03;90.42
22743;BME280;11538;48.884;8.696;2023-06-10T04:19:08;98426.28;;;16.03;90.07
22743;BME280;11538;48.884;8.696;2023-06-10T04:21:35;98432.22;;;15.81;91.38
22743;BME280;11538;48.884;8.696;2023-06-10T04:24:04;98431.19;;;15.73;92.35
22743;BME280;11538;48.884;8.696;2023-06-10T04:26:32;98432.44;;;15.63;93.23
22743;BME280;11538;48.884;8.696;2023-06-10T04:28:58;98430.16;;;15.53;94.02
22743;BME280;11538;48.884;8.696;2023-06-10T04:31:25;98430.50;;;15.51;94.45
22743;BME280;11538;48.884;8.696;2023-06-10T04:33:53;98422.53;;;15.58;94.09
22743;BME280;11538;48.884;8.696;2023-06-10T04:36:20;98422.06;;;15.69;93.34
22743;BME280;11538;48.884;8.696;2023-06-10T04:38:47;98433.00;;;15.69;93.56
22743;BME280;11538;48.884;8.696;2023-06-10T04:41:14;98428.91;;;15.75;93.34
22743;BME280;11538;48.884;8.696;2023-06-10T04:43:40;98432.75;;;15.86;92.71
22743;BME280;11538;48.884;8.696;2023-06-10T04:46:10;98432.69;;;15.95;92.13
22743;BME280;11538;48.884;8.696;2023-06-10T04:48:37;98430.38;;;16.10;90.86
22743;BME280;11538;48.884;8.696;2023-06-10T04:51:04;98430.84;;;15.99;91.74
22743;BME280;11538;48.884;8.696;2023-06-10T04:53:32;98420.34;;;16.01;92.04
22743;BME280;11538;48.884;8.696;2023-06-10T04:55:59;98433.47;;;16.08;91.57
22743;BME280;11538;48.884;8.696;2023-06-10T04:58:26;98424.91;;;16.10;91.35
22743;BME280;11538;48.884;8.696;2023-06-10T05:00:52;98430.44;;;16.26;90.60
22743;BME280;11538;48.884;8.696;2023-06-10T05:03:19;98428.81;;;16.37;89.88
22743;BME280;11538;48.884;8.696;2023-06-10T05:05:47;98435.31;;;16.32;90.54
22743;BME280;11538;48.884;8.696;2023-06-10T05:08:14;98437.59;;;16.30;90.99
22743;BME280;11538;48.884;8.696;2023-06-10T05:10:40;98439.06;;;16.40;90.50
22743;BME280;11538;48.884;8.696;2023-06-10T05:13:07;98437.56;;;16.43;90.29
22743;BME280;11538;48.884;8.696;2023-06-10T05:15:34;98440.66;;;16.41;90.67
22743;BME280;11538;48.884;8.696;2023-06-10T05:18:01;98437.22;;;16.44;90.55
22743;BME280;11538;48.884;8.696;2023-06-10T05:20:31;98441.84;;;16.56;89.88
22743;BME280;11538;48.884;8.696;2023-06-10T05:22:57;98443.06;;;16.71;89.14
22743;BME280;11538;48.884;8.696;2023-06-10T05:25:27;98441.16;;;16.88;89.02
22743;BME280;11538;48.884;8.696;2023-06-10T05:27:56;98447.75;;;16.99;88.47
22743;BME280;11538;48.884;8.696;2023-06-10T05:30:23;98453.06;;;17.08;87.69
22743;BME280;11538;48.884;8.696;2023-06-10T05:32:51;98455.72;;;17.20;86.89
22743;BME280;11538;48.884;8.696;2023-06-10T05:35:19;98461.06;;;17.29;86.52
22743;BME280;11538;48.884;8.696;2023-06-10T05:37:46;98454.34;;;17.43;86.69
22743;BME280;11538;48.884;8.696;2023-06-10T05:40:13;98457.00;;;17.55;86.17
22743;BME280;11538;48.884;8.696;2023-06-10T05:42:40;98451.75;;;17.66;85.40
22743;BME280;11538;48.884;8.696;2023-06-10T05:45:08;98450.41;;;17.76;85.04
22743;BME280;11538;48.884;8.696;2023-06-10T05:47:35;98453.31;;;17.83;84.72
22743;BME280;11538;48.884;8.696;2023-06-10T05:50:03;98461.72;;;17.90;84.53
22743;BME280;11538;48.884;8.696;2023-06-10T05:52:34;98447.00;;;17.98;84.83
22743;BME280;11538;48.884;8.696;2023-06-10T05:55:05;98460.22;;;18.09;84.49
22743;BME280;11538;48.884;8.696;2023-06-10T05:57:32;98465.94;;;18.20;84.27
22743;BME280;11538;48.884;8.696;2023-06-10T05:59:59;98457.13;;;18.30;83.16
22743;BME280;11538;48.884;8.696;2023-06-10T06:02:26;98452.59;;;18.38;82.48
22743;BME280;11538;48.884;8.696;2023-06-10T06:04:53;98470.00;;;18.46;82.12
22743;BME280;11538;48.884;8.696;2023-06-10T06:07:20;98459.25;;;18.56;81.56
22743;BME280;11538;48.884;8.696;2023-06-10T06:09:47;98459.03;;;18.65;80.61
22743;BME280;11538;48.884;8.696;2023-06-10T06:12:14;98458.38;;;18.72;80.22
22743;BME280;11538;48.884;8.696;2023-06-10T06:14:41;98462.44;;;18.78;79.33
22743;BME280;11538;48.884;8.696;2023-06-10T06:17:09;98464.50;;;18.85;79.14
22743;BME280;11538;48.884;8.696;2023-06-10T06:19:36;98459.81;;;18.85;79.29
22743;BME280;11538;48.884;8.696;2023-06-10T06:22:03;98461.91;;;18.92;78.72
22743;BME280;11538;48.884;8.696;2023-06-10T06:24:30;98468.72;;;18.98;78.46
22743;BME280;11538;48.884;8.696;2023-06-10T06:26:57;98465.31;;;19.05;78.56
22743;BME280;11538;48.884;8.696;2023-06-10T06:29:24;98467.47;;;19.16;77.87
22743;BME280;11538;48.884;8.696;2023-06-10T06:31:51;98463.59;;;19.20;77.64
22743;BME280;11538;48.884;8.696;2023-06-10T06:34:18;98468.44;;;19.27;77.45
22743;BME280;11538;48.884;8.696;2023-06-10T06:36:44;98467.78;;;19.34;77.06
22743;BME280;11538;48.884;8.696;2023-06-10T06:39:11;98464.34;;;19.40;77.17
22743;BME280;11538;48.884;8.696;2023-06-10T06:41:38;98467.66;;;19.50;76.85
22743;BME280;11538;48.884;8.696;2023-06-10T06:44:05;98468.94;;;19.56;76.13
22743;BME280;11538;48.884;8.696;2023-06-10T06:46:32;98467.88;;;19.64;75.74
22743;BME280;11538;48.884;8.696;2023-06-10T06:48:59;98474.72;;;19.74;75.94
22743;BME280;11538;48.884;8.696;2023-06-10T06:51:26;98473.28;;;19.84;75.18
22743;BME280;11538;48.884;8.696;2023-06-10T06:53:53;98473.50;;;19.95;75.35
22743;BME280;11538;48.884;8.696;2023-06-10T06:56:23;98468.59;;;20.08;74.84
22743;BME280;11538;48.884;8.696;2023-06-10T06:58:50;98468.72;;;20.19;74.82
22743;BME280;11538;48.884;8.696;2023-06-10T07:01:17;98466.47;;;20.28;74.78
22743;BME280;11538;48.884;8.696;2023-06-10T07:03:44;98464.63;;;20.36;73.86
22743;BME280;11538;48.884;8.696;2023-06-10T07:06:18;98468.75;;;20.53;73.88
22743;BME280;11538;48.884;8.696;2023-06-10T07:08:45;98469.75;;;20.68;73.20
22743;BME280;11538;48.884;8.696;2023-06-10T07:11:12;98475.03;;;20.80;72.52
22743;BME280;11538;48.884;8.696;2023-06-10T07:13:41;98466.88;;;20.91;72.04
22743;BME280;11538;48.884;8.696;2023-06-10T07:16:08;98472.50;;;21.02;71.67
22743;BME280;11538;48.884;8.696;2023-06-10T07:18:35;98463.53;;;21.09;71.41
22743;BME280;11538;48.884;8.696;2023-06-10T07:21:02;98469.94;;;21.20;71.08
22743;BME280;11538;48.884;8.696;2023-06-10T07:23:29;98468.91;;;21.36;70.00
22743;BME280;11538;48.884;8.696;2023-06-10T07:26:04;98471.78;;;21.50;69.64
22743;BME280;11538;48.884;8.696;2023-06-10T07:28:31;98473.16;;;21.67;69.46
22743;BME280;11538;48.884;8.696;2023-06-10T07:30:58;98468.53;;;21.86;68.38
22743;BME280;11538;48.884;8.696;2023-06-10T07:33:25;98473.38;;;22.00;67.92
22743;BME280;11538;48.884;8.696;2023-06-10T07:35:52;98472.28;;;22.15;67.05
22743;BME280;11538;48.884;8.696;2023-06-10T07:38:19;98470.78;;;22.29;66.28
22743;BME280;11538;48.884;8.696;2023-06-10T07:40:47;98464.91;;;22.41;65.35
22743;BME280;11538;48.884;8.696;2023-06-10T07:43:14;98472.13;;;22.53;65.08
22743;BME280;11538;48.884;8.696;2023-06-10T07:45:41;98474.13;;;22.63;64.91
22743;BME280;11538;48.884;8.696;2023-06-10T07:48:08;98469.81;;;22.73;64.75
22743;BME280;11538;48.884;8.696;2023-06-10T07:50:35;98472.25;;;22.89;64.39
22743;BME280;11538;48.884;8.696;2023-06-10T07:53:04;98469.91;;;23.06;63.44
22743;BME280;11538;48.884;8.696;2023-06-10T07:55:31;98463.63;;;23.20;62.90
22743;BME280;11538;48.884;8.696;2023-06-10T07:57:58;98469.19;;;23.31;62.38
22743;BME280;11538;48.884;8.696;2023-06-10T08:00:25;98473.16;;;23.41;61.76
22743;BME280;11538;48.884;8.696;2023-06-10T08:02:52;98471.59;;;23.54;61.53
22743;BME280;11538;48.884;8.696;2023-06-10T08:05:19;98474.72;;;23.67;60.69
22743;BME280;11538;48.884;8.696;2023-06-10T08:07:47;98465.25;;;23.79;60.37
22743;BME280;11538;48.884;8.696;2023-06-10T08:10:14;98468.78;;;23.98;59.82
22743;BME280;11538;48.884;8.696;2023-06-10T08:12:41;98459.69;;;24.12;60.80
22743;BME280;11538;48.884;8.696;2023-06-10T08:15:10;98466.34;;;24.32;59.63
22743;BME280;11538;48.884;8.696;2023-06-10T08:17:38;98477.41;;;24.47;59.15
22743;BME280;11538;48.884;8.696;2023-06-10T08:20:06;98469.47;;;24.52;58.31
22743;BME280;11538;48.884;8.696;2023-06-10T08:22:33;98466.25;;;24.65;57.34
22743;BME280;11538;48.884;8.696;2023-06-10T08:25:00;98455.50;;;24.81;57.39
22743;BME280;11538;48.884;8.696;2023-06-10T08:27:27;98457.81;;;24.90;57.35
22743;BME280;11538;48.884;8.696;2023-06-10T08:29:54;98465.66;;;25.03;57.13
22743;BME280;11538;48.884;8.696;2023-06-10T08:32:21;98463.59;;;25.21;56.21
22743;BME280;11538;48.884;8.696;2023-06-10T08:34:48;98456.69;;;25.40;56.14
22743;BME280;11538;48.884;8.696;2023-06-10T08:37:15;98464.97;;;25.51;55.34
22743;BME280;11538;48.884;8.696;2023-06-10T08:39:41;98465.63;;;25.66;56.01
22743;BME280;11538;48.884;8.696;2023-06-10T08:42:39;98467.59;;;25.69;52.42
22743;BME280;11538;48.884;8.696;2023-06-10T08:45:17;98467.56;;;25.73;54.44
22743;BME280;11538;48.884;8.696;2023-06-10T08:47:50;98474.53;;;25.92;54.12
22743;BME280;11538;48.884;8.696;2023-06-10T08:50:21;98475.63;;;26.02;52.44
22743;BME280;11538;48.884;8.696;2023-06-10T08:52:53;98469.25;;;26.05;53.26
22743;BME280;11538;48.884;8.696;2023-06-10T08:55:30;98475.94;;;26.11;51.17
22743;BME280;11538;48.884;8.696;2023-06-10T08:58:01;98478.66;;;26.19;52.42
22743;BME280;11538;48.884;8.696;2023-06-10T09:00:30;98472.94;;;26.33;53.23
22743;BME280;11538;48.884;8.696;2023-06-10T09:02:59;98469.59;;;26.49;53.92
22743;BME280;11538;48.884;8.696;2023-06-10T09:05:33;98464.69;;;26.61;51.36
22743;BME280;11538;48.884;8.696;2023-06-10T09:08:00;98459.38;;;26.74;52.85
22743;BME280;11538;48.884;8.696;2023-06-10T09:10:29;98465.88;;;26.94;51.39
22743;BME280;11538;48.884;8.696;2023-06-10T09:12:56;98449.31;;;27.11;50.92
22743;BME280;11538;48.884;8.696;2023-06-10T09:15:23;98453.09;;;27.24;50.53
22743;BME280;11538;48.884;8.696;2023-06-10T09:17:50;98457.34;;;27.33;50.21
22743;BME280;11538;48.884;8.696;2023-06-10T09:20:19;98450.41;;;27.44;50.03
22743;BME280;11538;48.884;8.696;2023-06-10T09:22:46;98447.94;;;27.50;50.73
22743;BME280;11538;48.884;8.696;2023-06-10T09:25:13;98450.97;;;27.59;49.37
22743;BME280;11538;48.884;8.696;2023-06-10T09:30:34;98441.34;;;27.88;47.75
22743;BME280;11538;48.884;8.696;2023-06-10T09:33:10;98457.06;;;27.98;50.75
22743;BME280;11538;48.884;8.696;2023-06-10T09:35:46;98452.56;;;28.05;48.72
22743;BME280;11538;48.884;8.696;2023-06-10T09:38:19;98449.44;;;28.02;47.69
22743;BME280;11538;48.884;8.696;2023-06-10T09:40:54;98444.06;;;28.12;50.21
22743;BME280;11538;48.884;8.696;2023-06-10T09:43:21;98446.13;;;28.31;47.45
22743;BME280;11538;48.884;8.696;2023-06-10T09:45:50;98445.69;;;28.33;48.13
22743;BME280;11538;48.884;8.696;2023-06-10T09:48:21;98448.34;;;28.40;47.87
22743;BME280;11538;48.884;8.696;2023-06-10T09:50:50;98453.25;;;28.53;47.69
22743;BME280;11538;48.884;8.696;2023-06-10T09:53:17;98443.69;;;28.54;47.79
22743;BME280;11538;48.884;8.696;2023-06-10T09:55:45;98435.16;;;28.61;44.21
22743;BME280;11538;48.884;8.696;2023-06-10T09:58:12;98447.09;;;28.82;46.52
22743;BME280;11538;48.884;8.696;2023-06-10T10:00:39;98444.69;;;29.00;45.04
22743;BME280;11538;48.884;8.696;2023-06-10T10:03:06;98452.66;;;29.18;45.15
22743;BME280;11538;48.884;8.696;2023-06-10T10:05:33;98453.81;;;29.21;46.08
22743;BME280;11538;48.884;8.696;2023-06-10T10:08:01;98442.28;;;29.19;42.73
22743;BME280;11538;48.884;8.696;2023-06-10T10:10:28;98439.41;;;29.23;44.67
22743;BME280;11538;48.884;8.696;2023-06-10T10:12:56;98444.13;;;29.42;44.83
22743;BME280;11538;48.884;8.696;2023-06-10T10:15:30;98447.78;;;29.56;45.50
22743;BME280;11538;48.884;8.696;2023-06-10T10:18:09;98448.13;;;29.74;46.65
22743;BME280;11538;48.884;8.696;2023-06-10T10:20:47;98442.00;;;29.96;44.08
22743;BME280;11538;48.884;8.696;2023-06-10T10:23:26;98451.66;;;30.08;43.87
22743;BME280;11538;48.884;8.696;2023-06-10T10:26:00;98444.75;;;30.13;39.78
22743;BME280;11538;48.884;8.696;2023-06-10T10:28:41;98440.09;;;30.23;44.58
22743;BME280;11538;48.884;8.696;2023-06-10T10:31:09;98446.22;;;30.17;40.33
22743;BME280;11538;48.884;8.696;2023-06-10T10:33:53;98450.16;;;30.20;41.82
22743;BME280;11538;48.884;8.696;2023-06-10T10:36:23;98449.47;;;30.16;39.86
22743;BME280;11538;48.884;8.696;2023-06-10T10:38:51;98454.25;;;30.15;42.52
22743;BME280;11538;48.884;8.696;2023-06-10T10:41:20;98441.78;;;30.33;39.64
22743;BME280;11538;48.884;8.696;2023-06-10T10:43:49;98443.81;;;30.62;39.32
22743;BME280;11538;48.884;8.696;2023-06-10T10:46:18;98437.75;;;30.63;38.17
22743;BME280;11538;48.884;8.696;2023-06-10T10:48:53;98438.34;;;30.84;39.88
22743;BME280;11538;48.884;8.696;2023-06-10T10:51:23;98438.44;;;30.93;42.15
22743;BME280;11538;48.884;8.696;2023-06-10T10:54:11;98433.06;;;30.73;40.76
22743;BME280;11538;48.884;8.696;2023-06-10T10:56:39;98443.84;;;30.88;38.42
22743;BME280;11538;48.884;8.696;2023-06-10T10:59:07;98430.72;;;30.98;41.30
22743;BME280;11538;48.884;8.696;2023-06-10T11:01:43;98427.03;;;30.62;39.06
22743;BME280;11538;48.884;8.696;2023-06-10T11:04:13;98425.41;;;30.18;39.91
22743;BME280;11538;48.884;8.696;2023-06-10T11:06:52;98429.00;;;29.73;43.17
22743;BME280;11538;48.884;8.696;2023-06-10T11:09:28;98419.16;;;29.35;41.71
22743;BME280;11538;48.884;8.696;2023-06-10T11:11:58;98415.44;;;29.88;41.96
22743;BME280;11538;48.884;8.696;2023-06-10T11:14:30;98418.41;;;30.69;38.87
22743;BME280;11538;48.884;8.696;2023-06-10T11:17:00;98417.38;;;31.15;40.91
22743;BME280;11538;48.884;8.696;2023-06-10T11:19:35;98414.66;;;31.50;38.05
22743;BME280;11538;48.884;8.696;2023-06-10T11:22:06;98420.88;;;31.80;38.52
22743;BME280;11538;48.884;8.696;2023-06-10T11:24:33;98406.97;;;31.89;33.97
22743;BME280;11538;48.884;8.696;2023-06-10T11:27:23;98415.03;;;32.09;38.72
22743;BME280;11538;48.884;8.696;2023-06-10T11:32:34;98412.63;;;32.65;33.85
22743;BME280;11538;48.884;8.696;2023-06-10T11:35:06;98415.13;;;33.04;33.41
22743;BME280;11538;48.884;8.696;2023-06-10T11:37:34;98412.38;;;33.14;32.42
22743;BME280;11538;48.884;8.696;2023-06-10T11:40:02;98408.34;;;33.33;33.23
22743;BME280;11538;48.884;8.696;2023-06-10T11:42:30;98402.00;;;33.70;33.84
22743;BME280;11538;48.884;8.696;2023-06-10T11:44:58;98401.88;;;32.73;33.36
22743;BME280;11538;48.884;8.696;2023-06-10T11:47:25;98401.00;;;32.09;32.35
22743;BME280;11538;48.884;8.696;2023-06-10T11:49:57;98405.09;;;32.31;33.03
22743;BME280;11538;48.884;8.696;2023-06-10T11:52:31;98395.34;;;32.76;32.89
22743;BME280;11538;48.884;8.696;2023-06-10T11:55:08;98386.81;;;33.30;31.72
22743;BME280;11538;48.884;8.696;2023-06-10T11:57:37;98402.16;;;33.57;31.10
22743;BME280;11538;48.884;8.696;2023-06-10T12:00:06;98395.47;;;34.10;33.44
22743;BME280;11538;48.884;8.696;2023-06-10T12:02:34;98392.66;;;33.92;31.69
22743;BME280;11538;48.884;8.696;2023-06-10T12:05:14;98388.00;;;32.70;32.49
22743;BME280;11538;48.884;8.696;2023-06-10T12:07:41;98388.97;;;32.85;32.58
22743;BME280;11538;48.884;8.696;2023-06-10T12:10:09;98389.47;;;32.07;33.46
22743;BME280;11538;48.884;8.696;2023-06-10T12:12:53;98389.66;;;31.91;34.03
22743;BME280;11538;48.884;8.696;2023-06-10T12:15:24;98388.53;;;31.53;34.24
22743;BME280;11538;48.884;8.696;2023-06-10T12:17:52;98398.47;;;30.93;36.22
22743;BME280;11538;48.884;8.696;2023-06-10T12:20:29;98387.66;;;30.40;36.72
22743;BME280;11538;48.884;8.696;2023-06-10T12:22:56;98384.22;;;30.06;37.20
22743;BME280;11538;48.884;8.696;2023-06-10T12:25:28;98391.53;;;30.59;36.41
22743;BME280;11538;48.884;8.696;2023-06-10T12:27:58;98385.94;;;32.16;33.88
22743;BME280;11538;48.884;8.696;2023-06-10T12:30:27;98388.78;;;33.20;32.67
22743;BME280;11538;48.884;8.696;2023-06-10T12:32:55;98384.66;;;33.90;30.67
22743;BME280;11538;48.884;8.696;2023-06-10T12:35:26;98383.97;;;34.42;30.49
22743;BME280;11538;48.884;8.696;2023-06-10T12:38:00;98376.94;;;34.90;28.65
22743;BME280;11538;48.884;8.696;2023-06-10T12:40:34;98385.94;;;35.12;28.70
22743;BME280;11538;48.884;8.696;2023-06-10T12:43:02;98389.59;;;34.94;28.80
22743;BME280;11538;48.884;8.696;2023-06-10T12:45:31;98381.31;;;34.91;28.88
22743;BME280;11538;48.884;8.696;2023-06-10T12:48:20;98375.19;;;35.26;27.34
22743;BME280;11538;48.884;8.696;2023-06-10T12:51:06;98372.22;;;34.96;28.39
22743;BME280;11538;48.884;8.696;2023-06-10T12:53:33;98376.44;;;35.25;28.28
22743;BME280;11538;48.884;8.696;2023-06-10T12:55:59;98371.25;;;35.33;28.34
22743;BME280;11538;48.884;8.696;2023-06-10T12:58:28;98377.84;;;34.96;28.74
22743;BME280;11538;48.884;8.696;2023-06-10T13:00:55;98381.38;;;35.15;28.47
22743;BME280;11538;48.884;8.696;2023-06-10T13:03:23;98372.03;;;34.66;29.27
22743;BME280;11538;48.884;8.696;2023-06-10T13:05:50;98367.47;;;33.88;29.88
22743;BME280;11538;48.884;8.696;2023-06-10T13:08:17;98372.59;;;34.79;29.22
22743;BME280;11538;48.884;8.696;2023-06-10T13:10:44;98369.88;;;35.52;28.31
22743;BME280;11538;48.884;8.696;2023-06-10T13:13:11;98361.47;;;35.82;27.40
22743;BME280;11538;48.884;8.696;2023-06-10T13:15:37;98359.13;;;35.66;27.75